sensor_id;sensor_type;location;lat;lon;timestamp;temperature;humidity
47845;DHT22;33605;48.822;8.796;2023-02-17T00:01:16;12.10;33.30
47845;DHT22;33605;48.822;8.796;2023-02-17T00:03:43;12.10;33.30
47845;DHT22;33605;48.822;8.796;2023-02-17T00:06:12;12.10;33.30
47845;DHT22;33605;48.822;8.796;2023-02-17T00:08:38;12.00;33.20
47845;DHT22;33605;48.822;8.796;2023-02-17T00:11:04;12.00;33.30
47845;DHT22;33605;48.822;8.796;2023-02-17T00:13:29;12.00;33.30
47845;DHT22;33605;48.822;8.796;2023-02-17T00:15:55;12.00;33.50
47845;DHT22;33605;48.822;8.796;2023-02-17T00:18:20;11.90;33.30
47845;DHT22;33605;48.822;8.796;2023-02-17T00:20:46;11.90;33.40
47845;DHT22;33605;48.822;8.796;2023-02-17T00:23:12;11.90;33.30
47845;DHT22;33605;48.822;8.796;2023-02-17T00:25:38;11.90;33.50
47845;DHT22;33605;48.822;8.796;2023-02-17T00:28:04;11.80;33.30
47845;DHT22;33605;48.822;8.796;2023-02-17T00:30:29;11.80;33.30
47845;DHT22;33605;48.822;8.796;2023-02-17T00:32:55;11.80;33.30
47845;DHT22;33605;48.822;8.796;2023-02-17T00:35:20;11.80;33.30
47845;DHT22;33605;48.822;8.796;2023-02-17T00:37:46;11.80;33.40
47845;DHT22;33605;48.822;8.796;2023-02-17T00:40:13;11.80;33.40
47845;DHT22;33605;48.822;8.796;2023-02-17T00:42:39;11.80;33.50
47845;DHT22;33605;48.822;8.796;2023-02-17T00:45:05;11.80;33.50
47845;DHT22;33605;48.822;8.796;2023-02-17T00:47:30;11.70;33.20
47845;DHT22;33605;48.822;8.796;2023-02-17T00:49:56;11.70;33.30
47845;DHT22;33605;48.822;8.796;2023-02-17T00:52:21;11.70;33.30
47845;DHT22;33605;48.822;8.796;2023-02-17T00:54:47;11.70;33.40
47845;DHT22;33605;48.822;8.796;2023-02-17T00:57:12;11.70;33.40
47845;DHT22;33605;48.822;8.796;2023-02-17T00:59:38;11.70;33.40
47845;DHT22;33605;48.822;8.796;2023-02-17T01:02:03;11.70;33.40
47845;DHT22;33605;48.822;8.796;2023-02-17T01:04:29;11.70;33.40
47845;DHT22;33605;48.822;8.796;2023-02-17T01:06:55;11.70;33.50
47845;DHT22;33605;48.822;8.796;2023-02-17T01:09:20;11.70;33.40
47845;DHT22;33605;48.822;8.796;2023-02-17T01:11:46;11.70;33.30
47845;DHT22;33605;48.822;8.796;2023-02-17T01:14:13;11.70;33.30
47845;DHT22;33605;48.822;8.796;2023-02-17T01:16:40;11.70;33.60
47845;DHT22;33605;48.822;8.796;2023-02-17T01:19:10;11.70;33.30
47845;DHT22;33605;48.822;8.796;2023-02-17T01:21:36;11.70;33.30
47845;DHT22;33605;48.822;8.796;2023-02-17T01:24:04;11.70;33.20
47845;DHT22;33605;48.822;8.796;2023-02-17T01:26:32;11.70;33.20
47845;DHT22;33605;48.822;8.796;2023-02-17T01:28:58;11.70;33.20
47845;DHT22;33605;48.822;8.796;2023-02-17T01:31:25;11.70;33.30
47845;DHT22;33605;48.822;8.796;2023-02-17T01:33:56;11.70;33.20
47845;DHT22;33605;48.822;8.796;2023-02-17T01:36:21;11.70;33.20
47845;DHT22;33605;48.822;8.796;2023-02-17T01:38:48;11.70;33.20
47845;DHT22;33605;48.822;8.796;2023-02-17T01:41:15;11.70;33.10
47845;DHT22;33605;48.822;8.796;2023-02-17T01:43:41;11.70;33.00
47845;DHT22;33605;48.822;8.796;2023-02-17T01:46:08;11.80;33.10
47845;DHT22;33605;48.822;8.796;2023-02-17T01:48:43;11.80;33.10
47845;DHT22;33605;48.822;8.796;2023-02-17T01:51:16;11.80;33.10
47845;DHT22;33605;48.822;8.796;2023-02-17T01:53:55;11.80;33.10
47845;DHT22;33605;48.822;8.796;2023-02-17T01:56:23;11.90;33.20
47845;DHT22;33605;48.822;8.796;2023-02-17T01:58:54;11.80;33.10
47845;DHT22;33605;48.822;8.796;2023-02-17T02:01:21;11.80;33.00
47845;DHT22;33605;48.822;8.796;2023-02-17T02:03:48;11.80;33.00
47845;DHT22;33605;48.822;8.796;2023-02-17T02:06:20;11.80;33.10
47845;DHT22;33605;48.822;8.796;2023-02-17T02:08:51;11.80;33.10
47845;DHT22;33605;48.822;8.796;2023-02-17T02:11:18;11.80;33.10
47845;DHT22;33605;48.822;8.796;2023-02-17T02:13:44;11.80;33.20
47845;DHT22;33605;48.822;8.796;2023-02-17T02:27:31;11.90;33.30
47845;DHT22;33605;48.822;8.796;2023-02-17T02:30:06;11.90;33.30
47845;DHT22;33605;48.822;8.796;2023-02-17T02:32:56;11.90;33.20
47845;DHT22;33605;48.822;8.796;2023-02-17T02:35:44;11.90;33.30
47845;DHT22;33605;48.822;8.796;2023-02-17T02:38:24;11.90;33.10
47845;DHT22;33605;48.822;8.796;2023-02-17T02:40:57;11.90;33.10
47845;DHT22;33605;48.822;8.796;2023-02-17T02:43:25;11.90;33.10
47845;DHT22;33605;48.822;8.796;2023-02-17T02:45:50;11.90;33.00
47845;DHT22;33605;48.822;8.796;2023-02-17T02:48:16;11.90;33.10
47845;DHT22;33605;48.822;8.796;2023-02-17T02:51:00;12.00;33.30
47845;DHT22;33605;48.822;8.796;2023-02-17T02:53:55;11.90;33.20
47845;DHT22;33605;48.822;8.796;2023-02-17T03:02:04;11.90;33.30
47845;DHT22;33605;48.822;8.796;2023-02-17T03:04:37;11.90;33.20
47845;DHT22;33605;48.822;8.796;2023-02-17T03:07:08;11.90;33.50
47845;DHT22;33605;48.822;8.796;2023-02-17T03:09:35;11.90;33.60
47845;DHT22;33605;48.822;8.796;2023-02-17T03:12:02;11.90;33.80
47845;DHT22;33605;48.822;8.796;2023-02-17T03:14:27;11.90;33.80
47845;DHT22;33605;48.822;8.796;2023-02-17T03:16:55;11.90;33.90
47845;DHT22;33605;48.822;8.796;2023-02-17T03:19:23;11.90;33.90
47845;DHT22;33605;48.822;8.796;2023-02-17T03:21:58;11.90;34.20
47845;DHT22;33605;48.822;8.796;2023-02-17T03:24:25;11.90;34.40
47845;DHT22;33605;48.822;8.796;2023-02-17T03:26:51;11.90;34.80
47845;DHT22;33605;48.822;8.796;2023-02-17T03:29:17;11.90;35.10
47845;DHT22;33605;48.822;8.796;2023-02-17T03:31:42;11.90;35.30
47845;DHT22;33605;48.822;8.796;2023-02-17T03:34:08;11.90;35.80
47845;DHT22;33605;48.822;8.796;2023-02-17T03:36:34;11.90;36.00
